sensor_id;sensor_type;location;lat;lon;timestamp;P1;durP1;ratioP1;P2;durP2;ratioP2
33902;SDS011;20194;50.950;5.346;2024-03-23T00:53:06;11.02;;;3.90;;
33902;SDS011;20194;50.950;5.346;2024-03-23T00:55:32;18.67;;;5.07;;
33902;SDS011;20194;50.950;5.346;2024-03-23T00:57:58;17.50;;;3.88;;
33902;SDS011;20194;50.950;5.346;2024-03-23T01:00:24;18.60;;;3.85;;
33902;SDS011;20194;50.950;5.346;2024-03-23T01:02:49;13.18;;;4.00;;
33902;SDS011;20194;50.950;5.346;2024-03-23T01:05:15;17.77;;;4.18;;
33902;SDS011;20194;50.950;5.346;2024-03-23T01:07:41;15.23;;;3.47;;
33902;SDS011;20194;50.950;5.346;2024-03-23T01:10:06;17.17;;;3.25;;
33902;SDS011;20194;50.950;5.346;2024-03-23T01:12:32;15.40;;;4.57;;
33902;SDS011;20194;50.950;5.346;2024-03-23T01:14:58;19.30;;;3.47;;
33902;SDS011;20194;50.950;5.346;2024-03-23T01:17:23;17.30;;;3.55;;
33902;SDS011;20194;50.950;5.346;2024-03-23T01:19:49;17.23;;;3.53;;
33902;SDS011;20194;50.950;5.346;2024-03-23T01:22:14;15.15;;;3.75;;
33902;SDS011;20194;50.950;5.346;2024-03-23T01:24:40;18.08;;;3.33;;
33902;SDS011;20194;50.950;5.346;2024-03-23T01:27:06;19.10;;;3.33;;
33902;SDS011;20194;50.950;5.346;2024-03-23T01:29:31;13.23;;;2.92;;
33902;SDS011;20194;50.950;5.346;2024-03-23T01:31:57;13.93;;;2.80;;
33902;SDS011;20194;50.950;5.346;2024-03-23T01:34:23;14.30;;;2.95;;
33902;SDS011;20194;50.950;5.346;2024-03-23T01:36:50;14.55;;;3.13;;
33902;SDS011;20194;50.950;5.346;2024-03-23T01:39:15;10.63;;;3.05;;
33902;SDS011;20194;50.950;5.346;2024-03-23T01:41:41;11.65;;;3.17;;
33902;SDS011;20194;50.950;5.346;2024-03-23T01:44:08;15.27;;;3.15;;
33902;SDS011;20194;50.950;5.346;2024-03-23T01:46:35;18.45;;;4.13;;
33902;SDS011;20194;50.950;5.346;2024-03-23T01:49:01;25.67;;;3.67;;
33902;SDS011;20194;50.950;5.346;2024-03-23T01:51:27;14.73;;;3.58;;
33902;SDS011;20194;50.950;5.346;2024-03-23T01:53:54;13.82;;;2.97;;
33902;SDS011;20194;50.950;5.346;2024-03-23T01:56:22;15.82;;;3.10;;
33902;SDS011;20194;50.950;5.346;2024-03-23T01:58:47;11.40;;;3.60;;
33902;SDS011;20194;50.950;5.346;2024-03-23T02:01:13;17.48;;;3.22;;
33902;SDS011;20194;50.950;5.346;2024-03-23T02:03:39;17.98;;;3.63;;
33902;SDS011;20194;50.950;5.346;2024-03-23T02:06:04;18.00;;;3.53;;
33902;SDS011;20194;50.950;5.346;2024-03-23T02:08:32;13.93;;;3.05;;
33902;SDS011;20194;50.950;5.346;2024-03-23T02:10:59;20.35;;;3.83;;
33902;SDS011;20194;50.950;5.346;2024-03-23T02:13:25;15.05;;;3.05;;
33902;SDS011;20194;50.950;5.346;2024-03-23T02:15:51;18.05;;;4.20;;
33902;SDS011;20194;50.950;5.346;2024-03-23T02:18:16;15.05;;;4.20;;
33902;SDS011;20194;50.950;5.346;2024-03-23T02:20:42;15.30;;;4.43;;
33902;SDS011;20194;50.950;5.346;2024-03-23T02:23:14;11.70;;;4.13;;
33902;SDS011;20194;50.950;5.346;2024-03-23T02:25:40;18.23;;;3.63;;
33902;SDS011;20194;50.950;5.346;2024-03-23T02:28:06;15.07;;;3.50;;
33902;SDS011;20194;50.950;5.346;2024-03-23T02:30:33;26.13;;;3.90;;
33902;SDS011;20194;50.950;5.346;2024-03-23T02:32:58;17.15;;;3.85;;
33902;SDS011;20194;50.950;5.346;2024-03-23T02:35:24;9.13;;;3.25;;
33902;SDS011;20194;50.950;5.346;2024-03-23T02:37:49;14.15;;;3.50;;
33902;SDS011;20194;50.950;5.346;2024-03-23T02:40:16;15.93;;;4.13;;
33902;SDS011;20194;50.950;5.346;2024-03-23T02:42:42;18.20;;;4.22;;
33902;SDS011;20194;50.950;5.346;2024-03-23T02:45:08;14.00;;;3.17;;
33902;SDS011;20194;50.950;5.346;2024-03-23T02:47:34;22.48;;;4.22;;
33902;SDS011;20194;50.950;5.346;2024-03-23T02:49:59;10.77;;;3.88;;
33902;SDS011;20194;50.950;5.346;2024-03-23T02:52:25;21.00;;;4.30;;
33902;SDS011;20194;50.950;5.346;2024-03-23T02:54:51;20.33;;;4.68;;
33902;SDS011;20194;50.950;5.346;2024-03-23T02:57:17;17.30;;;4.57;;
33902;SDS011;20194;50.950;5.346;2024-03-23T02:59:42;16.45;;;3.95;;
33902;SDS011;20194;50.950;5.346;2024-03-23T03:02:08;16.25;;;4.22;;
33902;SDS011;20194;50.950;5.346;2024-03-23T03:04:34;15.30;;;4.55;;
33902;SDS011;20194;50.950;5.346;2024-03-23T03:07:00;19.70;;;3.63;;
33902;SDS011;20194;50.950;5.346;2024-03-23T03:09:25;21.42;;;4.18;;
33902;SDS011;20194;50.950;5.346;2024-03-23T03:11:51;19.80;;;4.28;;
33902;SDS011;20194;50.950;5.346;2024-03-23T03:14:17;13.95;;;3.72;;
33902;SDS011;20194;50.950;5.346;2024-03-23T03:16:42;26.00;;;4.45;;
33902;SDS011;20194;50.950;5.346;2024-03-23T03:19:08;18.40;;;4.55;;
33902;SDS011;20194;50.950;5.346;2024-03-23T03:21:35;12.77;;;4.47;;
33902;SDS011;20194;50.950;5.346;2024-03-23T03:24:01;20.10;;;5.00;;
33902;SDS011;20194;50.950;5.346;2024-03-23T03:26:27;15.38;;;3.65;;
33902;SDS011;20194;50.950;5.346;2024-03-23T03:28:52;18.45;;;3.53;;
33902;SDS011;20194;50.950;5.346;2024-03-23T03:31:18;16.75;;;3.67;;
33902;SDS011;20194;50.950;5.346;2024-03-23T03:33:44;11.40;;;3.45;;
33902;SDS011;20194;50.950;5.346;2024-03-23T03:36:10;15.95;;;3.80;;
33902;SDS011;20194;50.950;5.346;2024-03-23T03:38:36;17.23;;;3.80;;
33902;SDS011;20194;50.950;5.346;2024-03-23T03:41:02;16.10;;;3.70;;
33902;SDS011;20194;50.950;5.346;2024-03-23T03:43:28;12.90;;;3.42;;
33902;SDS011;20194;50.950;5.346;2024-03-23T03:45:54;18.13;;;3.42;;
33902;SDS011;20194;50.950;5.346;2024-03-23T03:48:20;15.02;;;3.83;;
33902;SDS011;20194;50.950;5.346;2024-03-23T03:50:46;16.38;;;3.42;;
33902;SDS011;20194;50.950;5.346;2024-03-23T03:53:12;19.33;;;3.30;;
33902;SDS011;20194;50.950;5.346;2024-03-23T03:55:37;18.92;;;3.20;;
33902;SDS011;20194;50.950;5.346;2024-03-23T03:58:03;16.63;;;3.13;;
33902;SDS011;20194;50.950;5.346;2024-03-23T04:00:33;11.55;;;3.25;;
33902;SDS011;20194;50.950;5.346;2024-03-23T04:02:59;16.48;;;3.17;;
33902;SDS011;20194;50.950;5.346;2024-03-23T04:05:24;13.35;;;3.00;;
33902;SDS011;20194;50.950;5.346;2024-03-23T04:07:50;15.68;;;3.05;;
33902;SDS011;20194;50.950;5.346;2024-03-23T04:10:16;17.58;;;3.42;;
33902;SDS011;20194;50.950;5.346;2024-03-23T04:12:42;19.50;;;4.20;;
33902;SDS011;20194;50.950;5.346;2024-03-23T04:15:08;15.10;;;3.65;;
33902;SDS011;20194;50.950;5.346;2024-03-23T04:17:34;16.75;;;4.63;;
33902;SDS011;20194;50.950;5.346;2024-03-23T04:20:00;17.88;;;4.20;;
33902;SDS011;20194;50.950;5.346;2024-03-23T04:22:28;15.80;;;3.83;;
33902;SDS011;20194;50.950;5.346;2024-03-23T04:24:54;17.27;;;4.55;;
33902;SDS011;20194;50.950;5.346;2024-03-23T04:27:20;21.20;;;4.63;;
33902;SDS011;20194;50.950;5.346;2024-03-23T04:29:52;18.85;;;4.28;;
33902;SDS011;20194;50.950;5.346;2024-03-23T04:32:18;17.08;;;4.38;;
33902;SDS011;20194;50.950;5.346;2024-03-23T04:34:44;16.65;;;4.40;;
33902;SDS011;20194;50.950;5.346;2024-03-23T04:37:10;23.13;;;5.15;;
33902;SDS011;20194;50.950;5.346;2024-03-23T04:39:36;12.95;;;4.65;;
33902;SDS011;20194;50.950;5.346;2024-03-23T04:42:02;12.90;;;5.10;;
33902;SDS011;20194;50.950;5.346;2024-03-23T04:44:29;22.83;;;5.47;;
33902;SDS011;20194;50.950;5.346;2024-03-23T04:46:55;18.98;;;4.95;;
33902;SDS011;20194;50.950;5.346;2024-03-23T04:49:24;17.27;;;4.60;;
33902;SDS011;20194;50.950;5.346;2024-03-23T04:51:50;15.55;;;5.32;;
33902;SDS011;20194;50.950;5.346;2024-03-23T04:54:16;18.08;;;5.85;;
33902;SDS011;20194;50.950;5.346;2024-03-23T04:56:41;16.02;;;5.78;;
33902;SDS011;20194;50.950;5.346;2024-03-23T04:59:07;14.25;;;5.60;;
33902;SDS011;20194;50.950;5.346;2024-03-23T05:01:33;19.05;;;5.50;;
33902;SDS011;20194;50.950;5.346;2024-03-23T05:03:59;24.35;;;6.03;;
33902;SDS011;20194;50.950;5.346;2024-03-23T05:06:25;19.90;;;5.60;;
33902;SDS011;20194;50.950;5.346;2024-03-23T05:08:51;16.27;;;5.43;;
33902;SDS011;20194;50.950;5.346;2024-03-23T05:11:17;19.13;;;5.55;;
33902;SDS011;20194;50.950;5.346;2024-03-23T05:13:43;22.05;;;6.15;;
33902;SDS011;20194;50.950;5.346;2024-03-23T05:16:09;17.50;;;6.57;;
33902;SDS011;20194;50.950;5.346;2024-03-23T05:18:35;24.23;;;7.55;;
33902;SDS011;20194;50.950;5.346;2024-03-23T05:21:01;29.10;;;7.32;;
33902;SDS011;20194;50.950;5.346;2024-03-23T05:23:28;21.27;;;6.63;;
33902;SDS011;20194;50.950;5.346;2024-03-23T05:25:54;23.15;;;7.28;;
33902;SDS011;20194;50.950;5.346;2024-03-23T05:28:20;24.80;;;8.23;;
33902;SDS011;20194;50.950;5.346;2024-03-23T05:30:52;28.38;;;7.95;;
33902;SDS011;20194;50.950;5.346;2024-03-23T05:33:21;20.08;;;7.43;;
33902;SDS011;20194;50.950;5.346;2024-03-23T05:35:55;25.33;;;7.88;;
33902;SDS011;20194;50.950;5.346;2024-03-23T05:38:26;25.27;;;8.15;;
33902;SDS011;20194;50.950;5.346;2024-03-23T05:41:01;23.05;;;8.05;;
33902;SDS011;20194;50.950;5.346;2024-03-23T05:43:27;25.65;;;8.23;;
33902;SDS011;20194;50.950;5.346;2024-03-23T05:45:54;22.13;;;7.70;;
33902;SDS011;20194;50.950;5.346;2024-03-23T05:48:24;22.85;;;7.95;;
33902;SDS011;20194;50.950;5.346;2024-03-23T05:50:50;22.13;;;8.10;;
33902;SDS011;20194;50.950;5.346;2024-03-23T05:53:16;24.48;;;7.82;;
33902;SDS011;20194;50.950;5.346;2024-03-23T05:55:43;29.20;;;8.10;;
33902;SDS011;20194;50.950;5.346;2024-03-23T05:58:09;24.00;;;7.28;;
33902;SDS011;20194;50.950;5.346;2024-03-23T06:00:35;22.83;;;8.60;;
33902;SDS011;20194;50.950;5.346;2024-03-23T06:03:01;26.40;;;8.38;;
33902;SDS011;20194;50.950;5.346;2024-03-23T06:05:27;27.60;;;8.48;;
33902;SDS011;20194;50.950;5.346;2024-03-23T06:07:52;23.83;;;8.00;;
33902;SDS011;20194;50.950;5.346;2024-03-23T06:10:18;25.02;;;7.63;;
33902;SDS011;20194;50.950;5.346;2024-03-23T06:12:45;23.88;;;7.28;;
33902;SDS011;20194;50.950;5.346;2024-03-23T06:15:11;22.15;;;7.35;;
33902;SDS011;20194;50.950;5.346;2024-03-23T06:17:37;26.83;;;6.88;;
33902;SDS011;20194;50.950;5.346;2024-03-23T06:20:03;33.15;;;7.60;;
33902;SDS011;20194;50.950;5.346;2024-03-23T06:22:31;24.33;;;7.47;;
33902;SDS011;20194;50.950;5.346;2024-03-23T06:24:58;19.00;;;6.78;;
33902;SDS011;20194;50.950;5.346;2024-03-23T06:27:24;21.67;;;7.10;;
33902;SDS011;20194;50.950;5.346;2024-03-23T06:29:50;23.88;;;7.95;;
33902;SDS011;20194;50.950;5.346;2024-03-23T06:32:16;20.30;;;7.68;;
33902;SDS011;20194;50.950;5.346;2024-03-23T06:34:42;20.10;;;7.05;;
33902;SDS011;20194;50.950;5.346;2024-03-23T06:37:08;23.58;;;7.90;;
33902;SDS011;20194;50.950;5.346;2024-03-23T06:39:35;22.75;;;8.38;;
33902;SDS011;20194;50.950;5.346;2024-03-23T06:42:04;17.05;;;7.47;;
33902;SDS011;20194;50.950;5.346;2024-03-23T06:44:30;24.35;;;7.75;;
33902;SDS011;20194;50.950;5.346;2024-03-23T06:46:57;18.75;;;7.35;;
33902;SDS011;20194;50.950;5.346;2024-03-23T06:49:23;17.60;;;6.97;;
33902;SDS011;20194;50.950;5.346;2024-03-23T06:51:48;22.02;;;7.70;;
33902;SDS011;20194;50.950;5.346;2024-03-23T06:54:14;32.03;;;8.70;;
33902;SDS011;20194;50.950;5.346;2024-03-23T06:56:41;28.85;;;8.52;;
33902;SDS011;20194;50.950;5.346;2024-03-23T06:59:07;16.98;;;7.13;;
33902;SDS011;20194;50.950;5.346;2024-03-23T07:01:32;28.55;;;6.72;;
33902;SDS011;20194;50.950;5.346;2024-03-23T07:03:58;20.02;;;6.93;;
33902;SDS011;20194;50.950;5.346;2024-03-23T07:06:24;23.83;;;6.50;;
33902;SDS011;20194;50.950;5.346;2024-03-23T07:08:49;20.88;;;6.65;;
33902;SDS011;20194;50.950;5.346;2024-03-23T07:11:20;17.80;;;7.38;;
33902;SDS011;20194;50.950;5.346;2024-03-23T07:13:49;21.45;;;6.43;;
33902;SDS011;20194;50.950;5.346;2024-03-23T07:16:15;29.70;;;6.85;;
33902;SDS011;20194;50.950;5.346;2024-03-23T07:18:41;26.73;;;7.05;;
33902;SDS011;20194;50.950;5.346;2024-03-23T07:21:07;18.23;;;7.30;;
33902;SDS011;20194;50.950;5.346;2024-03-23T07:23:33;23.08;;;6.75;;
33902;SDS011;20194;50.950;5.346;2024-03-23T07:26:02;26.08;;;6.93;;
33902;SDS011;20194;50.950;5.346;2024-03-23T07:28:30;28.27;;;6.88;;
33902;SDS011;20194;50.950;5.346;2024-03-23T07:31:12;24.23;;;6.55;;
33902;SDS011;20194;50.950;5.346;2024-03-23T07:33:43;17.45;;;6.30;;
33902;SDS011;20194;50.950;5.346;2024-03-23T07:36:10;27.23;;;6.45;;
33902;SDS011;20194;50.950;5.346;2024-03-23T07:38:36;24.63;;;6.70;;
33902;SDS011;20194;50.950;5.346;2024-03-23T07:43:35;20.73;;;5.93;;
33902;SDS011;20194;50.950;5.346;2024-03-23T07:46:03;22.85;;;5.20;;
33902;SDS011;20194;50.950;5.346;2024-03-23T07:48:30;26.23;;;5.30;;
33902;SDS011;20194;50.950;5.346;2024-03-23T07:51:07;15.75;;;4.85;;
33902;SDS011;20194;50.950;5.346;2024-03-23T07:53:37;12.27;;;4.20;;
33902;SDS011;20194;50.950;5.346;2024-03-23T07:56:06;12.32;;;4.75;;
33902;SDS011;20194;50.950;5.346;2024-03-23T07:58:33;17.25;;;4.20;;
33902;SDS011;20194;50.950;5.346;2024-03-23T08:01:09;19.23;;;4.00;;
33902;SDS011;20194;50.950;5.346;2024-03-23T08:03:37;17.85;;;4.93;;
33902;SDS011;20194;50.950;5.346;2024-03-23T08:06:13;13.40;;;3.97;;
33902;SDS011;20194;50.950;5.346;2024-03-23T08:08:40;16.90;;;3.90;;
33902;SDS011;20194;50.950;5.346;2024-03-23T08:11:06;17.83;;;4.20;;
33902;SDS011;20194;50.950;5.346;2024-03-23T08:13:37;17.35;;;3.58;;
33902;SDS011;20194;50.950;5.346;2024-03-23T08:16:06;13.93;;;3.72;;
33902;SDS011;20194;50.950;5.346;2024-03-23T08:18:33;23.40;;;3.50;;
33902;SDS011;20194;50.950;5.346;2024-03-23T08:21:00;21.55;;;3.20;;
33902;SDS011;20194;50.950;5.346;2024-03-23T08:23:30;16.88;;;3.67;;
33902;SDS011;20194;50.950;5.346;2024-03-23T08:26:01;20.55;;;3.95;;
33902;SDS011;20194;50.950;5.346;2024-03-23T08:28:28;16.75;;;3.22;;
33902;SDS011;20194;50.950;5.346;2024-03-23T08:30:54;15.45;;;3.83;;
33902;SDS011;20194;50.950;5.346;2024-03-23T08:33:20;12.88;;;2.88;;
33902;SDS011;20194;50.950;5.346;2024-03-23T08:35:59;16.55;;;3.15;;
33902;SDS011;20194;50.950;5.346;2024-03-23T08:38:25;14.70;;;2.63;;
33902;SDS011;20194;50.950;5.346;2024-03-23T08:41:08;12.43;;;2.47;;
33902;SDS011;20194;50.950;5.346;2024-03-23T08:43:36;7.13;;;2.15;;
33902;SDS011;20194;50.950;5.346;2024-03-23T08:46:05;13.07;;;3.17;;
33902;SDS011;20194;50.950;5.346;2024-03-23T08:48:34;17.85;;;3.38;;
33902;SDS011;20194;50.950;5.346;2024-03-23T08:51:05;12.48;;;2.42;;
33902;SDS011;20194;50.950;5.346;2024-03-23T08:53:32;9.05;;;2.58;;
33902;SDS011;20194;50.950;5.346;2024-03-23T08:55:58;16.77;;;2.97;;
33902;SDS011;20194;50.950;5.346;2024-03-23T08:58:25;14.40;;;2.60;;
33902;SDS011;20194;50.950;5.346;2024-03-23T09:00:52;21.67;;;3.85;;
33902;SDS011;20194;50.950;5.346;2024-03-23T09:03:20;11.32;;;2.75;;
33902;SDS011;20194;50.950;5.346;2024-03-23T09:05:46;7.63;;;2.25;;
33902;SDS011;20194;50.950;5.346;2024-03-23T09:08:12;11.00;;;2.30;;
33902;SDS011;20194;50.950;5.346;2024-03-23T09:10:41;15.95;;;2.38;;
33902;SDS011;20194;50.950;5.346;2024-03-23T09:13:07;12.30;;;2.50;;
33902;SDS011;20194;50.950;5.346;2024-03-23T09:15:34;8.68;;;2.33;;
33902;SDS011;20194;50.950;5.346;2024-03-23T09:18:00;13.55;;;2.30;;
33902;SDS011;20194;50.950;5.346;2024-03-23T09:20:26;10.73;;;2.47;;
33902;SDS011;20194;50.950;5.346;2024-03-23T09:22:52;10.77;;;2.42;;
33902;SDS011;20194;50.950;5.346;2024-03-23T09:25:18;12.55;;;2.55;;
33902;SDS011;20194;50.950;5.346;2024-03-23T09:27:46;15.90;;;3.13;;
33902;SDS011;20194;50.950;5.346;2024-03-23T09:30:12;17.45;;;3.03;;
33902;SDS011;20194;50.950;5.346;2024-03-23T09:32:39;11.85;;;3.72;;
33902;SDS011;20194;50.950;5.346;2024-03-23T09:35:08;13.93;;;3.15;;
33902;SDS011;20194;50.950;5.346;2024-03-23T09:37:34;14.05;;;2.80;;
33902;SDS011;20194;50.950;5.346;2024-03-23T09:40:00;15.52;;;3.05;;
33902;SDS011;20194;50.950;5.346;2024-03-23T09:42:25;17.35;;;3.38;;
33902;SDS011;20194;50.950;5.346;2024-03-23T09:44:51;11.27;;;2.90;;
33902;SDS011;20194;50.950;5.346;2024-03-23T09:47:17;12.77;;;2.22;;
33902;SDS011;20194;50.950;5.346;2024-03-23T09:49:43;15.57;;;2.53;;
33902;SDS011;20194;50.950;5.346;2024-03-23T09:52:09;9.38;;;2.92;;
33902;SDS011;20194;50.950;5.346;2024-03-23T09:54:35;11.07;;;2.55;;
33902;SDS011;20194;50.950;5.346;2024-03-23T09:57:01;12.07;;;2.30;;
33902;SDS011;20194;50.950;5.346;2024-03-23T09:59:27;9.20;;;2.10;;
33902;SDS011;20194;50.950;5.346;2024-03-23T10:01:54;8.43;;;2.45;;
33902;SDS011;20194;50.950;5.346;2024-03-23T10:04:40;11.18;;;2.40;;
33902;SDS011;20194;50.950;5.346;2024-03-23T10:07:18;13.02;;;2.63;;
33902;SDS011;20194;50.950;5.346;2024-03-23T10:09:45;7.20;;;2.85;;
33902;SDS011;20194;50.950;5.346;2024-03-23T10:12:18;15.13;;;2.83;;
33902;SDS011;20194;50.950;5.346;2024-03-23T10:14:44;8.80;;;2.22;;
33902;SDS011;20194;50.950;5.346;2024-03-23T10:17:17;15.57;;;2.90;;
33902;SDS011;20194;50.950;5.346;2024-03-23T10:19:50;11.93;;;3.50;;
33902;SDS011;20194;50.950;5.346;2024-03-23T10:22:17;15.65;;;3.65;;
33902;SDS011;20194;50.950;5.346;2024-03-23T10:24:47;11.95;;;2.67;;
33902;SDS011;20194;50.950;5.346;2024-03-23T10:27:22;17.40;;;2.35;;
33902;SDS011;20194;50.950;5.346;2024-03-23T10:29:48;15.90;;;2.60;;
33902;SDS011;20194;50.950;5.346;2024-03-23T10:32:17;7.70;;;2.00;;
33902;SDS011;20194;50.950;5.346;2024-03-23T10:34:43;14.57;;;2.47;;
33902;SDS011;20194;50.950;5.346;2024-03-23T10:37:10;12.20;;;2.15;;
33902;SDS011;20194;50.950;5.346;2024-03-23T10:39:39;20.02;;;2.28;;
33902;SDS011;20194;50.950;5.346;2024-03-23T10:42:09;9.40;;;2.20;;
33902;SDS011;20194;50.950;5.346;2024-03-23T10:44:38;11.23;;;1.73;;
33902;SDS011;20194;50.950;5.346;2024-03-23T10:47:04;7.57;;;2.08;;
33902;SDS011;20194;50.950;5.346;2024-03-23T10:49:33;5.65;;;2.25;;
33902;SDS011;20194;50.950;5.346;2024-03-23T10:52:01;5.53;;;1.67;;
33902;SDS011;20194;50.950;5.346;2024-03-23T10:54:28;4.75;;;1.00;;
33902;SDS011;20194;50.950;5.346;2024-03-23T10:57:03;4.38;;;0.85;;
33902;SDS011;20194;50.950;5.346;2024-03-23T10:59:33;5.93;;;1.55;;
33902;SDS011;20194;50.950;5.346;2024-03-23T11:02:01;4.55;;;1.10;;
33902;SDS011;20194;50.950;5.346;2024-03-23T11:04:35;5.05;;;0.98;;
33902;SDS011;20194;50.950;5.346;2024-03-23T11:07:03;8.23;;;2.30;;
33902;SDS011;20194;50.950;5.346;2024-03-23T11:09:48;5.03;;;1.35;;
33902;SDS011;20194;50.950;5.346;2024-03-23T11:17:36;7.63;;;1.70;;
33902;SDS011;20194;50.950;5.346;2024-03-23T11:20:02;6.72;;;1.52;;
33902;SDS011;20194;50.950;5.346;2024-03-23T11:22:45;9.50;;;1.77;;
33902;SDS011;20194;50.950;5.346;2024-03-23T11:25:15;5.68;;;1.52;;
33902;SDS011;20194;50.950;5.346;2024-03-23T11:27:42;2.80;;;1.40;;
33902;SDS011;20194;50.950;5.346;2024-03-23T11:30:13;5.88;;;1.30;;
33902;SDS011;20194;50.950;5.346;2024-03-23T11:32:49;7.72;;;1.52;;
33902;SDS011;20194;50.950;5.346;2024-03-23T11:40:29;3.58;;;1.40;;
33902;SDS011;20194;50.950;5.346;2024-03-23T11:42:57;12.00;;;1.80;;
33902;SDS011;20194;50.950;5.346;2024-03-23T11:45:24;7.15;;;1.83;;
33902;SDS011;20194;50.950;5.346;2024-03-23T11:48:01;7.65;;;2.33;;
33902;SDS011;20194;50.950;5.346;2024-03-23T11:50:28;6.20;;;1.92;;
33902;SDS011;20194;50.950;5.346;2024-03-23T11:53:01;5.57;;;1.73;;
33902;SDS011;20194;50.950;5.346;2024-03-23T11:55:38;3.90;;;1.75;;
33902;SDS011;20194;50.950;5.346;2024-03-23T11:58:17;6.97;;;2.40;;
33902;SDS011;20194;50.950;5.346;2024-03-23T12:00:59;5.65;;;1.42;;
33902;SDS011;20194;50.950;5.346;2024-03-23T12:03:31;5.07;;;1.55;;
33902;SDS011;20194;50.950;5.346;2024-03-23T12:06:01;3.20;;;1.10;;
33902;SDS011;20194;50.950;5.346;2024-03-23T12:11:10;2.75;;;0.60;;
33902;SDS011;20194;50.950;5.346;2024-03-23T12:13:41;2.70;;;0.88;;
33902;SDS011;20194;50.950;5.346;2024-03-23T12:18:48;2.55;;;0.85;;
33902;SDS011;20194;50.950;5.346;2024-03-23T12:21:14;1.92;;;1.15;;
33902;SDS011;20194;50.950;5.346;2024-03-23T12:23:42;7.03;;;1.80;;
33902;SDS011;20194;50.950;5.346;2024-03-23T12:26:09;3.90;;;1.70;;
33902;SDS011;20194;50.950;5.346;2024-03-23T12:28:36;9.40;;;1.83;;
33902;SDS011;20194;50.950;5.346;2024-03-23T12:31:02;4.82;;;1.40;;
33902;SDS011;20194;50.950;5.346;2024-03-23T12:33:28;6.45;;;1.67;;
33902;SDS011;20194;50.950;5.346;2024-03-23T12:35:54;5.68;;;1.70;;
33902;SDS011;20194;50.950;5.346;2024-03-23T12:38:19;5.28;;;1.52;;
33902;SDS011;20194;50.950;5.346;2024-03-23T12:40:48;8.02;;;1.67;;
33902;SDS011;20194;50.950;5.346;2024-03-23T12:43:15;7.78;;;1.92;;
33902;SDS011;20194;50.950;5.346;2024-03-23T12:45:45;9.35;;;1.98;;
33902;SDS011;20194;50.950;5.346;2024-03-23T12:48:14;8.53;;;2.77;;
33902;SDS011;20194;50.950;5.346;2024-03-23T12:50:40;7.78;;;1.95;;
33902;SDS011;20194;50.950;5.346;2024-03-23T12:53:06;7.15;;;1.85;;
33902;SDS011;20194;50.950;5.346;2024-03-23T12:55:32;5.97;;;1.55;;
33902;SDS011;20194;50.950;5.346;2024-03-23T12:58:00;12.63;;;2.38;;
33902;SDS011;20194;50.950;5.346;2024-03-23T13:00:26;12.20;;;2.13;;
33902;SDS011;20194;50.950;5.346;2024-03-23T13:02:51;7.43;;;2.35;;
33902;SDS011;20194;50.950;5.346;2024-03-23T13:05:17;5.47;;;1.88;;
33902;SDS011;20194;50.950;5.346;2024-03-23T13:07:43;4.32;;;1.50;;
33902;SDS011;20194;50.950;5.346;2024-03-23T13:10:08;9.93;;;1.55;;
33902;SDS011;20194;50.950;5.346;2024-03-23T13:12:35;6.45;;;1.63;;
33902;SDS011;20194;50.950;5.346;2024-03-23T13:15:01;3.35;;;1.38;;
33902;SDS011;20194;50.950;5.346;2024-03-23T13:17:27;3.97;;;1.70;;
33902;SDS011;20194;50.950;5.346;2024-03-23T13:19:53;6.07;;;1.73;;
33902;SDS011;20194;50.950;5.346;2024-03-23T13:22:21;3.30;;;2.00;;
33902;SDS011;20194;50.950;5.346;2024-03-23T13:24:47;8.50;;;1.75;;
33902;SDS011;20194;50.950;5.346;2024-03-23T13:27:13;5.25;;;1.70;;
33902;SDS011;20194;50.950;5.346;2024-03-23T13:29:38;9.73;;;2.20;;
33902;SDS011;20194;50.950;5.346;2024-03-23T13:32:04;3.13;;;1.20;;
33902;SDS011;20194;50.950;5.346;2024-03-23T13:34:31;6.55;;;1.52;;
33902;SDS011;20194;50.950;5.346;2024-03-23T13:36:58;10.15;;;1.60;;
33902;SDS011;20194;50.950;5.346;2024-03-23T13:39:24;7.53;;;1.80;;
33902;SDS011;20194;50.950;5.346;2024-03-23T13:41:50;9.15;;;2.10;;
33902;SDS011;20194;50.950;5.346;2024-03-23T13:44:16;6.43;;;1.63;;
33902;SDS011;20194;50.950;5.346;2024-03-23T13:46:42;7.68;;;1.80;;
33902;SDS011;20194;50.950;5.346;2024-03-23T13:49:27;7.50;;;1.48;;
33902;SDS011;20194;50.950;5.346;2024-03-23T13:51:59;4.55;;;1.40;;
33902;SDS011;20194;50.950;5.346;2024-03-23T13:54:25;8.50;;;1.48;;
33902;SDS011;20194;50.950;5.346;2024-03-23T13:56:52;2.88;;;1.13;;
33902;SDS011;20194;50.950;5.346;2024-03-23T13:59:19;3.28;;;1.08;;
33902;SDS011;20194;50.950;5.346;2024-03-23T14:01:46;4.10;;;1.40;;
33902;SDS011;20194;50.950;5.346;2024-03-23T14:04:12;6.68;;;1.23;;
33902;SDS011;20194;50.950;5.346;2024-03-23T14:06:38;2.85;;;1.00;;
33902;SDS011;20194;50.950;5.346;2024-03-23T14:09:04;9.20;;;2.50;;
33902;SDS011;20194;50.950;5.346;2024-03-23T14:11:34;2.83;;;1.38;;
33902;SDS011;20194;50.950;5.346;2024-03-23T14:14:02;5.03;;;1.30;;
33902;SDS011;20194;50.950;5.346;2024-03-23T14:16:31;3.55;;;1.60;;
33902;SDS011;20194;50.950;5.346;2024-03-23T14:18:57;6.03;;;1.13;;
33902;SDS011;20194;50.950;5.346;2024-03-23T14:21:23;4.63;;;0.80;;
33902;SDS011;20194;50.950;5.346;2024-03-23T14:23:48;2.90;;;0.68;;
33902;SDS011;20194;50.950;5.346;2024-03-23T14:26:14;1.00;;;0.75;;
33902;SDS011;20194;50.950;5.346;2024-03-23T14:28:40;4.00;;;0.77;;
33902;SDS011;20194;50.950;5.346;2024-03-23T14:31:06;6.25;;;0.85;;
33902;SDS011;20194;50.950;5.346;2024-03-23T14:33:35;4.82;;;1.20;;
33902;SDS011;20194;50.950;5.346;2024-03-23T14:36:02;0.93;;;0.65;;
33902;SDS011;20194;50.950;5.346;2024-03-23T14:38:28;3.78;;;1.08;;
33902;SDS011;20194;50.950;5.346;2024-03-23T14:40:57;9.68;;;1.17;;
33902;SDS011;20194;50.950;5.346;2024-03-23T14:43:24;7.78;;;1.40;;
33902;SDS011;20194;50.950;5.346;2024-03-23T14:48:39;7.82;;;2.30;;
33902;SDS011;20194;50.950;5.346;2024-03-23T14:51:06;9.57;;;2.40;;
33902;SDS011;20194;50.950;5.346;2024-03-23T14:53:35;6.95;;;2.47;;
33902;SDS011;20194;50.950;5.346;2024-03-23T14:56:05;5.78;;;2.53;;
33902;SDS011;20194;50.950;5.346;2024-03-23T14:58:33;7.28;;;2.28;;
33902;SDS011;20194;50.950;5.346;2024-03-23T15:01:02;7.13;;;2.15;;
33902;SDS011;20194;50.950;5.346;2024-03-23T15:03:37;8.88;;;2.55;;
33902;SDS011;20194;50.950;5.346;2024-03-23T15:06:04;7.90;;;1.83;;
33902;SDS011;20194;50.950;5.346;2024-03-23T15:08:31;6.40;;;2.08;;
33902;SDS011;20194;50.950;5.346;2024-03-23T15:11:00;5.75;;;2.00;;
33902;SDS011;20194;50.950;5.346;2024-03-23T15:13:30;7.30;;;1.90;;
33902;SDS011;20194;50.950;5.346;2024-03-23T15:15:59;7.93;;;1.90;;
33902;SDS011;20194;50.950;5.346;2024-03-23T15:18:25;9.38;;;1.95;;
33902;SDS011;20194;50.950;5.346;2024-03-23T15:20:54;5.70;;;1.60;;
33902;SDS011;20194;50.950;5.346;2024-03-23T15:23:20;9.27;;;2.13;;
33902;SDS011;20194;50.950;5.346;2024-03-23T15:25:53;8.30;;;1.67;;
33902;SDS011;20194;50.950;5.346;2024-03-23T15:28:25;6.22;;;1.90;;
33902;SDS011;20194;50.950;5.346;2024-03-23T15:31:03;8.52;;;1.80;;
33902;SDS011;20194;50.950;5.346;2024-03-23T15:33:32;6.68;;;1.40;;
33902;SDS011;20194;50.950;5.346;2024-03-23T15:36:01;9.77;;;1.70;;
33902;SDS011;20194;50.950;5.346;2024-03-23T15:38:28;8.30;;;1.13;;
33902;SDS011;20194;50.950;5.346;2024-03-23T15:40:54;7.22;;;2.03;;
33902;SDS011;20194;50.950;5.346;2024-03-23T15:43:20;5.03;;;1.40;;
33902;SDS011;20194;50.950;5.346;2024-03-23T15:45:58;7.28;;;1.10;;
33902;SDS011;20194;50.950;5.346;2024-03-23T15:48:25;5.10;;;0.82;;
33902;SDS011;20194;50.950;5.346;2024-03-23T15:50:55;7.57;;;1.30;;
33902;SDS011;20194;50.950;5.346;2024-03-23T15:53:31;5.70;;;1.40;;